sensor_id;sensor_type;location;lat;lon;timestamp;P1;durP1;ratioP1;P2;durP2;ratioP2
12910;SDS011;6523;49.758;6.120;2023-05-20T00:00:51;4.57;;;1.83;;
12910;SDS011;6523;49.758;6.120;2023-05-20T00:03:17;2.43;;;1.60;;
12910;SDS011;6523;49.758;6.120;2023-05-20T00:05:44;2.23;;;1.80;;
12910;SDS011;6523;49.758;6.120;2023-05-20T00:08:10;2.40;;;1.70;;
12910;SDS011;6523;49.758;6.120;2023-05-20T00:10:35;2.20;;;1.60;;
12910;SDS011;6523;49.758;6.120;2023-05-20T00:13:01;2.37;;;1.60;;
12910;SDS011;6523;49.758;6.120;2023-05-20T00:15:27;3.53;;;2.27;;
12910;SDS011;6523;49.758;6.120;2023-05-20T00:17:53;1.50;;;1.40;;
12910;SDS011;6523;49.758;6.120;2023-05-20T00:20:19;1.77;;;1.60;;
12910;SDS011;6523;49.758;6.120;2023-05-20T00:22:45;2.87;;;1.87;;
12910;SDS011;6523;49.758;6.120;2023-05-20T00:25:10;1.70;;;1.60;;
12910;SDS011;6523;49.758;6.120;2023-05-20T00:27:38;2.23;;;1.50;;
12910;SDS011;6523;49.758;6.120;2023-05-20T00:30:07;5.57;;;2.47;;
12910;SDS011;6523;49.758;6.120;2023-05-20T00:32:33;2.63;;;1.60;;
12910;SDS011;6523;49.758;6.120;2023-05-20T00:34:59;1.90;;;1.70;;
12910;SDS011;6523;49.758;6.120;2023-05-20T00:37:25;1.97;;;1.50;;
12910;SDS011;6523;49.758;6.120;2023-05-20T00:39:51;2.77;;;1.77;;
12910;SDS011;6523;49.758;6.120;2023-05-20T00:42:20;2.33;;;1.60;;
12910;SDS011;6523;49.758;6.120;2023-05-20T00:44:50;1.93;;;1.70;;
12910;SDS011;6523;49.758;6.120;2023-05-20T00:47:17;2.50;;;1.30;;
12910;SDS011;6523;49.758;6.120;2023-05-20T00:49:44;3.23;;;1.93;;
12910;SDS011;6523;49.758;6.120;2023-05-20T00:52:10;3.07;;;1.70;;
12910;SDS011;6523;49.758;6.120;2023-05-20T00:54:37;2.70;;;1.70;;
12910;SDS011;6523;49.758;6.120;2023-05-20T00:57:07;2.20;;;1.93;;
12910;SDS011;6523;49.758;6.120;2023-05-20T00:59:37;2.77;;;1.70;;
12910;SDS011;6523;49.758;6.120;2023-05-20T01:02:03;2.10;;;1.83;;
12910;SDS011;6523;49.758;6.120;2023-05-20T01:04:29;3.23;;;1.87;;
12910;SDS011;6523;49.758;6.120;2023-05-20T01:06:55;2.10;;;1.90;;
12910;SDS011;6523;49.758;6.120;2023-05-20T01:09:23;3.27;;;2.33;;
12910;SDS011;6523;49.758;6.120;2023-05-20T01:11:49;3.33;;;2.00;;
12910;SDS011;6523;49.758;6.120;2023-05-20T01:14:23;3.33;;;1.83;;
12910;SDS011;6523;49.758;6.120;2023-05-20T01:16:53;2.63;;;1.80;;
12910;SDS011;6523;49.758;6.120;2023-05-20T01:19:26;4.77;;;1.83;;
12910;SDS011;6523;49.758;6.120;2023-05-20T01:22:01;3.80;;;1.60;;
12910;SDS011;6523;49.758;6.120;2023-05-20T01:24:29;2.43;;;1.70;;
12910;SDS011;6523;49.758;6.120;2023-05-20T01:26:54;3.17;;;1.77;;
12910;SDS011;6523;49.758;6.120;2023-05-20T01:29:22;1.70;;;1.57;;
12910;SDS011;6523;49.758;6.120;2023-05-20T01:31:48;3.13;;;1.70;;
12910;SDS011;6523;49.758;6.120;2023-05-20T01:34:15;4.67;;;1.93;;
12910;SDS011;6523;49.758;6.120;2023-05-20T01:36:41;3.03;;;2.07;;
12910;SDS011;6523;49.758;6.120;2023-05-20T01:39:09;3.87;;;1.90;;
12910;SDS011;6523;49.758;6.120;2023-05-20T01:41:36;4.10;;;1.90;;
12910;SDS011;6523;49.758;6.120;2023-05-20T01:44:02;2.63;;;1.87;;
12910;SDS011;6523;49.758;6.120;2023-05-20T01:46:31;2.40;;;2.00;;
12910;SDS011;6523;49.758;6.120;2023-05-20T01:48:59;3.10;;;1.90;;
12910;SDS011;6523;49.758;6.120;2023-05-20T01:51:25;2.60;;;1.90;;
12910;SDS011;6523;49.758;6.120;2023-05-20T01:53:51;2.53;;;2.03;;
12910;SDS011;6523;49.758;6.120;2023-05-20T01:56:17;2.63;;;2.07;;
12910;SDS011;6523;49.758;6.120;2023-05-20T01:58:42;2.80;;;1.90;;
12910;SDS011;6523;49.758;6.120;2023-05-20T02:01:08;3.60;;;2.03;;
12910;SDS011;6523;49.758;6.120;2023-05-20T02:03:33;2.30;;;2.07;;
12910;SDS011;6523;49.758;6.120;2023-05-20T02:05:59;3.13;;;2.00;;
12910;SDS011;6523;49.758;6.120;2023-05-20T02:08:25;1.87;;;1.70;;
12910;SDS011;6523;49.758;6.120;2023-05-20T02:10:50;2.30;;;2.10;;
12910;SDS011;6523;49.758;6.120;2023-05-20T02:13:16;2.03;;;1.80;;
12910;SDS011;6523;49.758;6.120;2023-05-20T02:15:41;2.53;;;1.80;;
12910;SDS011;6523;49.758;6.120;2023-05-20T02:18:07;5.73;;;2.47;;
12910;SDS011;6523;49.758;6.120;2023-05-20T02:20:35;2.00;;;1.80;;
12910;SDS011;6523;49.758;6.120;2023-05-20T02:23:01;3.63;;;2.10;;
12910;SDS011;6523;49.758;6.120;2023-05-20T02:25:29;2.80;;;2.03;;
12910;SDS011;6523;49.758;6.120;2023-05-20T02:27:55;3.80;;;2.43;;
12910;SDS011;6523;49.758;6.120;2023-05-20T02:30:21;2.17;;;1.90;;
12910;SDS011;6523;49.758;6.120;2023-05-20T02:32:46;3.00;;;1.57;;
12910;SDS011;6523;49.758;6.120;2023-05-20T02:35:12;4.70;;;2.20;;
12910;SDS011;6523;49.758;6.120;2023-05-20T02:37:37;2.33;;;2.13;;
12910;SDS011;6523;49.758;6.120;2023-05-20T02:40:03;2.03;;;1.83;;
12910;SDS011;6523;49.758;6.120;2023-05-20T02:42:30;3.43;;;2.43;;
12910;SDS011;6523;49.758;6.120;2023-05-20T02:44:56;3.33;;;2.17;;
12910;SDS011;6523;49.758;6.120;2023-05-20T02:47:23;2.33;;;1.80;;
12910;SDS011;6523;49.758;6.120;2023-05-20T02:49:49;2.53;;;2.10;;
12910;SDS011;6523;49.758;6.120;2023-05-20T02:52:15;1.90;;;1.80;;
12910;SDS011;6523;49.758;6.120;2023-05-20T02:54:40;1.90;;;1.80;;
12910;SDS011;6523;49.758;6.120;2023-05-20T02:57:06;2.33;;;2.00;;
12910;SDS011;6523;49.758;6.120;2023-05-20T02:59:31;2.47;;;2.00;;
12910;SDS011;6523;49.758;6.120;2023-05-20T03:01:57;2.47;;;2.20;;
12910;SDS011;6523;49.758;6.120;2023-05-20T03:04:22;2.30;;;2.10;;
12910;SDS011;6523;49.758;6.120;2023-05-20T03:06:50;2.40;;;1.70;;
12910;SDS011;6523;49.758;6.120;2023-05-20T03:09:16;3.47;;;1.80;;
12910;SDS011;6523;49.758;6.120;2023-05-20T03:11:43;3.43;;;2.30;;
12910;SDS011;6523;49.758;6.120;2023-05-20T03:14:09;3.20;;;2.40;;
12910;SDS011;6523;49.758;6.120;2023-05-20T03:16:35;2.67;;;2.00;;
12910;SDS011;6523;49.758;6.120;2023-05-20T03:19:00;3.00;;;2.03;;
12910;SDS011;6523;49.758;6.120;2023-05-20T03:21:26;2.90;;;2.03;;
12910;SDS011;6523;49.758;6.120;2023-05-20T03:23:52;2.50;;;2.27;;
12910;SDS011;6523;49.758;6.120;2023-05-20T03:26:17;2.40;;;2.03;;
12910;SDS011;6523;49.758;6.120;2023-05-20T03:28:43;3.83;;;2.23;;
12910;SDS011;6523;49.758;6.120;2023-05-20T03:31:08;3.70;;;2.00;;
12910;SDS011;6523;49.758;6.120;2023-05-20T03:33:34;2.33;;;2.13;;
12910;SDS011;6523;49.758;6.120;2023-05-20T03:35:59;3.07;;;2.00;;
12910;SDS011;6523;49.758;6.120;2023-05-20T03:38:25;2.30;;;2.10;;
12910;SDS011;6523;49.758;6.120;2023-05-20T03:40:51;3.17;;;1.80;;
12910;SDS011;6523;49.758;6.120;2023-05-20T03:43:17;2.40;;;2.20;;
12910;SDS011;6523;49.758;6.120;2023-05-20T03:45:42;2.23;;;2.03;;
12910;SDS011;6523;49.758;6.120;2023-05-20T03:48:07;2.67;;;2.30;;
12910;SDS011;6523;49.758;6.120;2023-05-20T03:50:33;2.87;;;2.20;;
12910;SDS011;6523;49.758;6.120;2023-05-20T03:52:59;3.30;;;2.17;;
12910;SDS011;6523;49.758;6.120;2023-05-20T03:55:24;2.50;;;2.30;;
12910;SDS011;6523;49.758;6.120;2023-05-20T03:57:50;2.90;;;2.50;;
12910;SDS011;6523;49.758;6.120;2023-05-20T04:00:15;3.97;;;2.60;;
12910;SDS011;6523;49.758;6.120;2023-05-20T04:02:42;2.40;;;2.20;;
12910;SDS011;6523;49.758;6.120;2023-05-20T04:05:08;2.80;;;2.50;;
12910;SDS011;6523;49.758;6.120;2023-05-20T04:07:34;2.70;;;2.50;;
12910;SDS011;6523;49.758;6.120;2023-05-20T04:10:00;2.40;;;2.20;;
12910;SDS011;6523;49.758;6.120;2023-05-20T04:12:26;3.70;;;2.60;;
12910;SDS011;6523;49.758;6.120;2023-05-20T04:14:55;2.83;;;2.53;;
12910;SDS011;6523;49.758;6.120;2023-05-20T04:17:22;3.53;;;2.47;;
12910;SDS011;6523;49.758;6.120;2023-05-20T04:19:47;3.17;;;2.30;;
12910;SDS011;6523;49.758;6.120;2023-05-20T04:22:13;3.17;;;2.80;;
12910;SDS011;6523;49.758;6.120;2023-05-20T04:24:38;6.43;;;2.50;;
12910;SDS011;6523;49.758;6.120;2023-05-20T04:27:04;2.50;;;2.30;;
12910;SDS011;6523;49.758;6.120;2023-05-20T04:29:29;2.40;;;2.20;;
12910;SDS011;6523;49.758;6.120;2023-05-20T04:31:58;4.53;;;2.57;;
12910;SDS011;6523;49.758;6.120;2023-05-20T04:34:27;2.90;;;2.53;;
12910;SDS011;6523;49.758;6.120;2023-05-20T04:36:53;3.30;;;2.20;;
12910;SDS011;6523;49.758;6.120;2023-05-20T04:39:19;3.07;;;2.47;;
12910;SDS011;6523;49.758;6.120;2023-05-20T04:41:44;3.57;;;2.50;;
12910;SDS011;6523;49.758;6.120;2023-05-20T04:44:12;2.47;;;2.23;;
12910;SDS011;6523;49.758;6.120;2023-05-20T04:46:37;3.40;;;2.20;;
12910;SDS011;6523;49.758;6.120;2023-05-20T04:49:03;3.70;;;2.57;;
12910;SDS011;6523;49.758;6.120;2023-05-20T04:51:29;2.50;;;2.30;;
12910;SDS011;6523;49.758;6.120;2023-05-20T04:53:55;3.73;;;2.50;;
12910;SDS011;6523;49.758;6.120;2023-05-20T04:56:20;2.63;;;2.43;;
12910;SDS011;6523;49.758;6.120;2023-05-20T04:58:46;5.03;;;2.60;;
12910;SDS011;6523;49.758;6.120;2023-05-20T05:01:12;4.37;;;2.60;;
12910;SDS011;6523;49.758;6.120;2023-05-20T05:03:37;2.37;;;2.13;;
12910;SDS011;6523;49.758;6.120;2023-05-20T05:06:03;4.33;;;3.00;;
12910;SDS011;6523;49.758;6.120;2023-05-20T05:08:28;2.37;;;2.17;;
12910;SDS011;6523;49.758;6.120;2023-05-20T05:10:54;2.60;;;2.40;;
12910;SDS011;6523;49.758;6.120;2023-05-20T05:13:19;2.43;;;2.10;;
12910;SDS011;6523;49.758;6.120;2023-05-20T05:15:45;3.37;;;2.33;;
12910;SDS011;6523;49.758;6.120;2023-05-20T05:18:10;2.50;;;2.20;;
12910;SDS011;6523;49.758;6.120;2023-05-20T05:20:36;2.50;;;2.30;;
12910;SDS011;6523;49.758;6.120;2023-05-20T05:23:01;2.90;;;2.60;;
12910;SDS011;6523;49.758;6.120;2023-05-20T05:25:27;2.43;;;2.20;;
12910;SDS011;6523;49.758;6.120;2023-05-20T05:27:52;2.63;;;2.43;;
12910;SDS011;6523;49.758;6.120;2023-05-20T05:30:19;3.13;;;2.30;;
12910;SDS011;6523;49.758;6.120;2023-05-20T05:32:46;3.73;;;2.40;;
12910;SDS011;6523;49.758;6.120;2023-05-20T05:35:11;3.23;;;2.37;;
12910;SDS011;6523;49.758;6.120;2023-05-20T05:37:37;3.07;;;2.40;;
12910;SDS011;6523;49.758;6.120;2023-05-20T05:40:03;2.67;;;2.30;;
12910;SDS011;6523;49.758;6.120;2023-05-20T05:42:28;2.13;;;1.93;;
12910;SDS011;6523;49.758;6.120;2023-05-20T05:44:54;3.07;;;2.77;;
12910;SDS011;6523;49.758;6.120;2023-05-20T05:47:20;2.70;;;2.50;;
12910;SDS011;6523;49.758;6.120;2023-05-20T05:49:45;4.17;;;2.37;;
12910;SDS011;6523;49.758;6.120;2023-05-20T05:52:11;7.07;;;2.47;;
12910;SDS011;6523;49.758;6.120;2023-05-20T05:54:37;3.50;;;2.40;;
12910;SDS011;6523;49.758;6.120;2023-05-20T05:57:02;2.63;;;2.10;;
12910;SDS011;6523;49.758;6.120;2023-05-20T05:59:28;2.73;;;2.07;;
12910;SDS011;6523;49.758;6.120;2023-05-20T06:01:53;2.90;;;2.20;;
12910;SDS011;6523;49.758;6.120;2023-05-20T06:04:19;2.30;;;2.10;;
12910;SDS011;6523;49.758;6.120;2023-05-20T06:06:46;5.03;;;2.70;;
12910;SDS011;6523;49.758;6.120;2023-05-20T06:09:12;3.33;;;2.13;;
12910;SDS011;6523;49.758;6.120;2023-05-20T06:11:37;4.27;;;2.50;;
12910;SDS011;6523;49.758;6.120;2023-05-20T06:14:03;3.30;;;2.50;;
12910;SDS011;6523;49.758;6.120;2023-05-20T06:16:28;3.40;;;2.30;;
12910;SDS011;6523;49.758;6.120;2023-05-20T06:18:54;3.43;;;2.60;;
12910;SDS011;6523;49.758;6.120;2023-05-20T06:21:21;2.70;;;2.50;;
12910;SDS011;6523;49.758;6.120;2023-05-20T06:23:47;4.80;;;2.57;;
12910;SDS011;6523;49.758;6.120;2023-05-20T06:26:13;2.60;;;2.40;;
12910;SDS011;6523;49.758;6.120;2023-05-20T06:28:38;3.57;;;3.10;;
12910;SDS011;6523;49.758;6.120;2023-05-20T06:31:04;3.23;;;2.30;;
12910;SDS011;6523;49.758;6.120;2023-05-20T06:33:30;4.27;;;2.57;;
12910;SDS011;6523;49.758;6.120;2023-05-20T06:35:56;3.53;;;2.67;;
12910;SDS011;6523;49.758;6.120;2023-05-20T06:38:22;2.97;;;2.20;;
12910;SDS011;6523;49.758;6.120;2023-05-20T06:40:48;4.17;;;2.50;;
12910;SDS011;6523;49.758;6.120;2023-05-20T06:43:14;3.10;;;2.80;;
12910;SDS011;6523;49.758;6.120;2023-05-20T06:45:41;3.00;;;2.73;;
12910;SDS011;6523;49.758;6.120;2023-05-20T06:48:06;3.87;;;2.60;;
12910;SDS011;6523;49.758;6.120;2023-05-20T06:50:32;6.57;;;2.87;;
12910;SDS011;6523;49.758;6.120;2023-05-20T06:52:58;3.10;;;2.70;;
12910;SDS011;6523;49.758;6.120;2023-05-20T06:55:23;3.53;;;3.23;;
12910;SDS011;6523;49.758;6.120;2023-05-20T06:57:50;3.03;;;2.73;;
12910;SDS011;6523;49.758;6.120;2023-05-20T07:00:15;3.00;;;2.70;;
12910;SDS011;6523;49.758;6.120;2023-05-20T07:02:41;4.33;;;2.97;;
12910;SDS011;6523;49.758;6.120;2023-05-20T07:05:07;3.70;;;3.40;;
12910;SDS011;6523;49.758;6.120;2023-05-20T07:07:33;2.97;;;2.53;;
12910;SDS011;6523;49.758;6.120;2023-05-20T07:09:59;3.97;;;3.10;;
12910;SDS011;6523;49.758;6.120;2023-05-20T07:12:25;3.90;;;2.90;;
12910;SDS011;6523;49.758;6.120;2023-05-20T07:14:50;3.53;;;2.73;;
12910;SDS011;6523;49.758;6.120;2023-05-20T07:17:16;3.13;;;2.70;;
12910;SDS011;6523;49.758;6.120;2023-05-20T07:19:41;3.93;;;2.87;;
12910;SDS011;6523;49.758;6.120;2023-05-20T07:22:07;5.33;;;3.00;;
12910;SDS011;6523;49.758;6.120;2023-05-20T07:24:34;3.33;;;2.80;;
12910;SDS011;6523;49.758;6.120;2023-05-20T07:27:00;3.30;;;3.00;;
12910;SDS011;6523;49.758;6.120;2023-05-20T07:29:25;4.27;;;2.77;;
12910;SDS011;6523;49.758;6.120;2023-05-20T07:31:51;3.47;;;3.10;;
12910;SDS011;6523;49.758;6.120;2023-05-20T07:34:16;3.30;;;2.57;;
12910;SDS011;6523;49.758;6.120;2023-05-20T07:36:42;5.07;;;3.10;;
12910;SDS011;6523;49.758;6.120;2023-05-20T07:39:08;3.63;;;3.10;;
12910;SDS011;6523;49.758;6.120;2023-05-20T07:41:34;4.33;;;3.43;;
12910;SDS011;6523;49.758;6.120;2023-05-20T07:44:01;5.77;;;3.03;;
12910;SDS011;6523;49.758;6.120;2023-05-20T07:46:28;3.73;;;3.10;;
12910;SDS011;6523;49.758;6.120;2023-05-20T07:48:54;3.30;;;3.00;;
12910;SDS011;6523;49.758;6.120;2023-05-20T07:51:19;3.50;;;2.90;;
12910;SDS011;6523;49.758;6.120;2023-05-20T07:53:45;5.67;;;3.30;;
12910;SDS011;6523;49.758;6.120;2023-05-20T07:56:10;3.70;;;3.20;;
12910;SDS011;6523;49.758;6.120;2023-05-20T07:58:36;3.63;;;3.00;;
12910;SDS011;6523;49.758;6.120;2023-05-20T08:01:01;4.37;;;3.27;;
12910;SDS011;6523;49.758;6.120;2023-05-20T08:03:27;3.83;;;3.47;;
12910;SDS011;6523;49.758;6.120;2023-05-20T08:05:53;3.60;;;3.30;;
12910;SDS011;6523;49.758;6.120;2023-05-20T08:08:18;4.07;;;3.63;;
12910;SDS011;6523;49.758;6.120;2023-05-20T08:10:44;4.97;;;3.63;;
12910;SDS011;6523;49.758;6.120;2023-05-20T08:13:09;3.80;;;3.33;;
12910;SDS011;6523;49.758;6.120;2023-05-20T08:15:35;4.53;;;3.37;;
12910;SDS011;6523;49.758;6.120;2023-05-20T08:18:01;3.97;;;3.47;;
12910;SDS011;6523;49.758;6.120;2023-05-20T08:20:27;4.30;;;3.90;;
12910;SDS011;6523;49.758;6.120;2023-05-20T08:22:53;3.83;;;3.47;;
12910;SDS011;6523;49.758;6.120;2023-05-20T08:25:19;4.73;;;3.83;;
12910;SDS011;6523;49.758;6.120;2023-05-20T08:27:44;4.50;;;3.53;;
12910;SDS011;6523;49.758;6.120;2023-05-20T08:30:10;5.03;;;3.50;;
12910;SDS011;6523;49.758;6.120;2023-05-20T08:32:36;4.97;;;3.60;;
12910;SDS011;6523;49.758;6.120;2023-05-20T08:35:02;5.13;;;4.17;;
12910;SDS011;6523;49.758;6.120;2023-05-20T08:37:28;4.03;;;3.53;;
12910;SDS011;6523;49.758;6.120;2023-05-20T08:39:54;3.97;;;3.67;;
12910;SDS011;6523;49.758;6.120;2023-05-20T08:42:22;4.57;;;4.00;;
12910;SDS011;6523;49.758;6.120;2023-05-20T08:44:49;4.00;;;3.70;;
12910;SDS011;6523;49.758;6.120;2023-05-20T08:47:16;5.50;;;3.60;;
12910;SDS011;6523;49.758;6.120;2023-05-20T08:49:43;4.30;;;3.90;;
12910;SDS011;6523;49.758;6.120;2023-05-20T08:52:09;4.30;;;3.90;;
12910;SDS011;6523;49.758;6.120;2023-05-20T08:54:42;5.13;;;4.60;;
12910;SDS011;6523;49.758;6.120;2023-05-20T08:57:13;5.17;;;4.20;;
12910;SDS011;6523;49.758;6.120;2023-05-20T08:59:42;4.97;;;4.17;;
12910;SDS011;6523;49.758;6.120;2023-05-20T09:02:09;4.53;;;4.00;;
12910;SDS011;6523;49.758;6.120;2023-05-20T09:04:37;4.20;;;3.80;;
12910;SDS011;6523;49.758;6.120;2023-05-20T09:07:03;6.87;;;3.93;;
12910;SDS011;6523;49.758;6.120;2023-05-20T09:09:29;4.47;;;4.03;;
12910;SDS011;6523;49.758;6.120;2023-05-20T09:11:55;4.90;;;4.40;;
12910;SDS011;6523;49.758;6.120;2023-05-20T09:14:20;5.67;;;3.93;;
12910;SDS011;6523;49.758;6.120;2023-05-20T09:16:51;5.60;;;4.33;;
12910;SDS011;6523;49.758;6.120;2023-05-20T09:19:16;4.57;;;4.17;;
12910;SDS011;6523;49.758;6.120;2023-05-20T09:21:45;6.10;;;4.63;;
12910;SDS011;6523;49.758;6.120;2023-05-20T09:24:11;5.37;;;4.13;;
12910;SDS011;6523;49.758;6.120;2023-05-20T09:26:36;5.33;;;4.00;;
12910;SDS011;6523;49.758;6.120;2023-05-20T09:29:02;5.00;;;4.40;;
12910;SDS011;6523;49.758;6.120;2023-05-20T09:31:32;4.37;;;3.97;;
12910;SDS011;6523;49.758;6.120;2023-05-20T09:34:01;4.23;;;3.83;;
12910;SDS011;6523;49.758;6.120;2023-05-20T09:36:28;6.20;;;4.03;;
12910;SDS011;6523;49.758;6.120;2023-05-20T09:38:56;4.97;;;3.70;;
12910;SDS011;6523;49.758;6.120;2023-05-20T09:41:38;5.00;;;3.67;;
12910;SDS011;6523;49.758;6.120;2023-05-20T09:44:10;4.07;;;3.57;;
12910;SDS011;6523;49.758;6.120;2023-05-20T09:46:36;4.20;;;3.70;;
12910;SDS011;6523;49.758;6.120;2023-05-20T09:49:03;3.43;;;3.20;;
12910;SDS011;6523;49.758;6.120;2023-05-20T09:51:31;3.97;;;3.67;;
12910;SDS011;6523;49.758;6.120;2023-05-20T09:53:58;4.67;;;3.47;;
12910;SDS011;6523;49.758;6.120;2023-05-20T09:56:24;3.67;;;3.20;;
12910;SDS011;6523;49.758;6.120;2023-05-20T09:58:52;4.20;;;3.53;;
12910;SDS011;6523;49.758;6.120;2023-05-20T10:01:22;3.50;;;3.20;;
12910;SDS011;6523;49.758;6.120;2023-05-20T10:03:49;5.37;;;3.57;;
12910;SDS011;6523;49.758;6.120;2023-05-20T10:11:42;4.37;;;3.67;;
12910;SDS011;6523;49.758;6.120;2023-05-20T10:14:31;4.20;;;3.83;;
12910;SDS011;6523;49.758;6.120;2023-05-20T10:17:20;5.00;;;3.40;;
12910;SDS011;6523;49.758;6.120;2023-05-20T10:19:56;4.23;;;3.77;;
12910;SDS011;6523;49.758;6.120;2023-05-20T10:22:29;3.70;;;3.40;;
12910;SDS011;6523;49.758;6.120;2023-05-20T10:24:58;4.47;;;3.77;;
12910;SDS011;6523;49.758;6.120;2023-05-20T10:27:28;4.03;;;3.30;;
12910;SDS011;6523;49.758;6.120;2023-05-20T10:29:54;5.17;;;3.47;;
12910;SDS011;6523;49.758;6.120;2023-05-20T10:32:30;4.67;;;3.80;;
12910;SDS011;6523;49.758;6.120;2023-05-20T10:35:00;4.30;;;3.90;;
12910;SDS011;6523;49.758;6.120;2023-05-20T10:37:40;3.63;;;3.10;;
12910;SDS011;6523;49.758;6.120;2023-05-20T10:40:08;3.87;;;3.37;;
12910;SDS011;6523;49.758;6.120;2023-05-20T10:42:35;4.73;;;2.80;;
12910;SDS011;6523;49.758;6.120;2023-05-20T10:45:01;3.70;;;3.40;;
12910;SDS011;6523;49.758;6.120;2023-05-20T10:47:27;3.50;;;3.20;;
12910;SDS011;6523;49.758;6.120;2023-05-20T10:49:52;4.03;;;3.63;;
12910;SDS011;6523;49.758;6.120;2023-05-20T10:52:18;3.67;;;3.37;;
12910;SDS011;6523;49.758;6.120;2023-05-20T10:55:02;4.03;;;3.13;;
12910;SDS011;6523;49.758;6.120;2023-05-20T10:57:29;3.33;;;3.00;;
12910;SDS011;6523;49.758;6.120;2023-05-20T10:59:56;3.50;;;2.90;;
12910;SDS011;6523;49.758;6.120;2023-05-20T11:02:22;5.20;;;3.40;;
12910;SDS011;6523;49.758;6.120;2023-05-20T11:04:51;3.50;;;3.23;;
12910;SDS011;6523;49.758;6.120;2023-05-20T11:07:29;3.50;;;3.30;;
12910;SDS011;6523;49.758;6.120;2023-05-20T11:09:56;3.43;;;3.17;;
12910;SDS011;6523;49.758;6.120;2023-05-20T11:12:22;3.60;;;3.30;;
12910;SDS011;6523;49.758;6.120;2023-05-20T11:14:49;3.73;;;3.20;;
12910;SDS011;6523;49.758;6.120;2023-05-20T11:17:15;3.73;;;3.40;;
12910;SDS011;6523;49.758;6.120;2023-05-20T11:19:42;4.07;;;3.10;;
12910;SDS011;6523;49.758;6.120;2023-05-20T11:22:08;4.33;;;3.00;;
12910;SDS011;6523;49.758;6.120;2023-05-20T11:24:34;3.43;;;3.10;;
12910;SDS011;6523;49.758;6.120;2023-05-20T11:27:00;3.10;;;2.60;;
12910;SDS011;6523;49.758;6.120;2023-05-20T11:29:26;4.77;;;3.17;;
12910;SDS011;6523;49.758;6.120;2023-05-20T11:31:53;6.17;;;3.17;;
12910;SDS011;6523;49.758;6.120;2023-05-20T11:34:22;4.63;;;3.33;;
12910;SDS011;6523;49.758;6.120;2023-05-20T11:36:48;3.37;;;3.17;;
12910;SDS011;6523;49.758;6.120;2023-05-20T11:39:20;3.37;;;3.07;;
12910;SDS011;6523;49.758;6.120;2023-05-20T11:41:46;3.60;;;3.20;;
12910;SDS011;6523;49.758;6.120;2023-05-20T11:44:11;3.50;;;3.20;;
12910;SDS011;6523;49.758;6.120;2023-05-20T11:46:41;4.40;;;3.53;;
12910;SDS011;6523;49.758;6.120;2023-05-20T11:49:07;4.07;;;3.60;;
12910;SDS011;6523;49.758;6.120;2023-05-20T11:51:33;3.53;;;2.93;;
12910;SDS011;6523;49.758;6.120;2023-05-20T11:54:00;4.03;;;3.37;;
12910;SDS011;6523;49.758;6.120;2023-05-20T11:56:29;4.03;;;3.23;;
12910;SDS011;6523;49.758;6.120;2023-05-20T11:58:58;4.53;;;3.33;;
12910;SDS011;6523;49.758;6.120;2023-05-20T12:01:24;3.83;;;3.00;;
12910;SDS011;6523;49.758;6.120;2023-05-20T12:03:52;3.77;;;3.30;;
12910;SDS011;6523;49.758;6.120;2023-05-20T12:06:17;3.57;;;3.27;;
12910;SDS011;6523;49.758;6.120;2023-05-20T12:08:43;5.23;;;3.43;;
12910;SDS011;6523;49.758;6.120;2023-05-20T12:11:10;3.30;;;2.90;;
12910;SDS011;6523;49.758;6.120;2023-05-20T12:13:36;3.50;;;3.20;;
12910;SDS011;6523;49.758;6.120;2023-05-20T12:16:01;3.40;;;3.10;;
12910;SDS011;6523;49.758;6.120;2023-05-20T12:18:29;4.83;;;3.33;;
12910;SDS011;6523;49.758;6.120;2023-05-20T12:20:55;3.40;;;3.10;;
12910;SDS011;6523;49.758;6.120;2023-05-20T12:23:21;3.73;;;3.43;;
12910;SDS011;6523;49.758;6.120;2023-05-20T12:25:46;3.47;;;3.27;;
12910;SDS011;6523;49.758;6.120;2023-05-20T12:28:13;3.60;;;3.30;;
12910;SDS011;6523;49.758;6.120;2023-05-20T12:30:40;4.53;;;3.03;;
12910;SDS011;6523;49.758;6.120;2023-05-20T12:33:06;3.37;;;3.07;;
12910;SDS011;6523;49.758;6.120;2023-05-20T12:35:39;3.33;;;3.00;;
12910;SDS011;6523;49.758;6.120;2023-05-20T12:38:06;3.57;;;3.27;;
12910;SDS011;6523;49.758;6.120;2023-05-20T12:40:32;3.53;;;3.23;;
12910;SDS011;6523;49.758;6.120;2023-05-20T12:43:02;3.07;;;2.87;;
12910;SDS011;6523;49.758;6.120;2023-05-20T12:45:28;3.20;;;3.00;;
12910;SDS011;6523;49.758;6.120;2023-05-20T12:47:54;4.53;;;3.13;;
12910;SDS011;6523;49.758;6.120;2023-05-20T12:50:20;3.90;;;3.60;;
12910;SDS011;6523;49.758;6.120;2023-05-20T12:52:46;3.53;;;3.23;;
12910;SDS011;6523;49.758;6.120;2023-05-20T12:55:12;5.10;;;3.40;;
12910;SDS011;6523;49.758;6.120;2023-05-20T12:57:40;4.23;;;2.93;;
12910;SDS011;6523;49.758;6.120;2023-05-20T13:00:08;3.87;;;3.47;;
12910;SDS011;6523;49.758;6.120;2023-05-20T13:02:35;3.23;;;2.87;;
12910;SDS011;6523;49.758;6.120;2023-05-20T13:05:02;3.00;;;2.70;;
12910;SDS011;6523;49.758;6.120;2023-05-20T13:07:28;3.83;;;3.53;;
12910;SDS011;6523;49.758;6.120;2023-05-20T13:09:53;3.80;;;3.20;;
12910;SDS011;6523;49.758;6.120;2023-05-20T13:12:19;5.80;;;2.87;;
12910;SDS011;6523;49.758;6.120;2023-05-20T13:14:44;3.57;;;3.27;;
12910;SDS011;6523;49.758;6.120;2023-05-20T13:17:10;3.50;;;3.20;;
12910;SDS011;6523;49.758;6.120;2023-05-20T13:19:36;3.87;;;3.47;;
12910;SDS011;6523;49.758;6.120;2023-05-20T13:22:02;5.87;;;3.20;;
12910;SDS011;6523;49.758;6.120;2023-05-20T13:24:29;3.07;;;2.87;;
12910;SDS011;6523;49.758;6.120;2023-05-20T13:26:56;3.40;;;3.00;;
12910;SDS011;6523;49.758;6.120;2023-05-20T13:29:22;4.90;;;3.53;;
12910;SDS011;6523;49.758;6.120;2023-05-20T13:31:47;3.73;;;3.30;;
12910;SDS011;6523;49.758;6.120;2023-05-20T13:34:13;3.57;;;3.27;;
12910;SDS011;6523;49.758;6.120;2023-05-20T13:36:39;4.23;;;3.07;;
12910;SDS011;6523;49.758;6.120;2023-05-20T13:39:04;3.30;;;3.00;;
12910;SDS011;6523;49.758;6.120;2023-05-20T13:41:30;3.83;;;3.00;;
12910;SDS011;6523;49.758;6.120;2023-05-20T13:43:56;3.73;;;3.10;;
12910;SDS011;6523;49.758;6.120;2023-05-20T13:46:22;4.27;;;2.73;;
12910;SDS011;6523;49.758;6.120;2023-05-20T13:48:48;4.00;;;3.60;;
12910;SDS011;6523;49.758;6.120;2023-05-20T13:51:13;5.13;;;2.87;;
12910;SDS011;6523;49.758;6.120;2023-05-20T13:53:39;3.33;;;3.07;;
12910;SDS011;6523;49.758;6.120;2023-05-20T13:56:04;3.50;;;3.30;;
12910;SDS011;6523;49.758;6.120;2023-05-20T13:58:33;3.70;;;3.40;;
12910;SDS011;6523;49.758;6.120;2023-05-20T14:01:02;5.03;;;3.80;;
12910;SDS011;6523;49.758;6.120;2023-05-20T14:03:28;3.60;;;3.30;;
12910;SDS011;6523;49.758;6.120;2023-05-20T14:05:55;3.70;;;3.40;;
12910;SDS011;6523;49.758;6.120;2023-05-20T14:08:20;5.23;;;3.17;;
12910;SDS011;6523;49.758;6.120;2023-05-20T14:10:47;3.90;;;3.20;;
12910;SDS011;6523;49.758;6.120;2023-05-20T14:40:48;4.10;;;3.57;;
12910;SDS011;6523;49.758;6.120;2023-05-20T14:43:14;6.40;;;4.13;;
12910;SDS011;6523;49.758;6.120;2023-05-20T14:45:40;3.83;;;3.57;;
12910;SDS011;6523;49.758;6.120;2023-05-20T14:48:05;4.07;;;3.77;;
12910;SDS011;6523;49.758;6.120;2023-05-20T14:50:31;3.97;;;3.60;;
12910;SDS011;6523;49.758;6.120;2023-05-20T14:52:56;4.90;;;3.67;;
12910;SDS011;6523;49.758;6.120;2023-05-20T14:55:22;4.40;;;3.77;;
12910;SDS011;6523;49.758;6.120;2023-05-20T14:57:47;4.40;;;3.97;;
12910;SDS011;6523;49.758;6.120;2023-05-20T15:00:13;4.37;;;3.97;;
12910;SDS011;6523;49.758;6.120;2023-05-20T15:02:39;5.13;;;4.60;;
12910;SDS011;6523;49.758;6.120;2023-05-20T15:05:05;5.43;;;4.43;;
12910;SDS011;6523;49.758;6.120;2023-05-20T15:07:30;5.33;;;4.23;;
12910;SDS011;6523;49.758;6.120;2023-05-20T15:09:56;4.10;;;3.80;;
12910;SDS011;6523;49.758;6.120;2023-05-20T15:12:21;4.20;;;3.90;;
12910;SDS011;6523;49.758;6.120;2023-05-20T15:14:47;5.10;;;4.23;;
12910;SDS011;6523;49.758;6.120;2023-05-20T15:17:13;4.57;;;4.17;;
12910;SDS011;6523;49.758;6.120;2023-05-20T15:19:38;4.37;;;3.97;;
12910;SDS011;6523;49.758;6.120;2023-05-20T15:22:05;4.37;;;4.03;;
12910;SDS011;6523;49.758;6.120;2023-05-20T15:24:30;5.10;;;4.70;;
12910;SDS011;6523;49.758;6.120;2023-05-20T15:26:56;4.40;;;4.10;;
12910;SDS011;6523;49.758;6.120;2023-05-20T15:29:21;5.00;;;4.50;;